createdAt,value
2022-11-05T00:09:18.266Z,37
2022-11-05T00:11:54.590Z,34
2022-11-05T00:14:22.887Z,36
2022-11-05T00:16:51.116Z,23
2022-11-05T00:19:11.213Z,29
2022-11-05T00:21:39.477Z,82
2022-11-05T00:25:21.890Z,34
2022-11-05T00:27:50.141Z,31
2022-11-05T00:31:32.549Z,38
2022-11-05T00:58:51.751Z,35
2022-11-05T01:01:28.199Z,45
2022-11-05T01:03:56.405Z,52
2022-11-05T01:06:24.665Z,34
2022-11-05T01:08:52.938Z,34
2022-11-05T01:11:21.201Z,37
2022-11-05T01:13:49.461Z,32
2022-11-05T01:16:17.725Z,40
2022-11-05T01:18:45.980Z,40
2022-11-05T01:22:20.286Z,43
2022-11-05T01:47:19.348Z,47
2022-11-05T01:52:23.998Z,29
2022-11-05T01:54:52.263Z,29
2022-11-05T01:57:20.517Z,43
2022-11-05T02:02:17.163Z,29
2022-11-05T02:20:57.235Z,57
2022-11-05T02:34:24.487Z,62
2022-11-05T02:36:52.779Z,71
2022-11-05T02:39:21.046Z,59
2022-11-05T02:41:49.283Z,76
2022-11-05T02:44:17.635Z,58
2022-11-05T02:46:54.062Z,62
2022-11-05T02:50:36.431Z,45
2022-11-05T02:55:33.002Z,63
2022-11-05T02:58:01.237Z,63
2022-11-05T03:00:29.529Z,61
2022-11-05T03:27:48.696Z,39
2022-11-05T03:30:25.103Z,47
2022-11-05T03:32:53.369Z,50
2022-11-05T03:35:21.596Z,42
2022-11-05T03:37:49.892Z,47
2022-11-05T03:40:18.167Z,50
2022-11-05T03:42:46.427Z,42
2022-11-05T03:46:28.789Z,56
2022-11-05T03:51:25.449Z,51
2022-11-05T04:15:59.941Z,35
2022-11-05T04:18:36.295Z,47
2022-11-05T04:22:18.667Z,44
2022-11-05T04:24:46.945Z,41
2022-11-05T04:29:43.489Z,29
2022-11-05T04:59:39.066Z,21
2022-11-05T05:03:21.457Z,19
2022-11-05T05:05:52.928Z,34
2022-11-05T05:09:32.150Z,43
2022-11-05T05:51:49.093Z,39
2022-11-05T06:13:47.151Z,25
2022-11-05T06:17:37.682Z,27
2022-11-05T06:21:21.105Z,50
2022-11-05T06:23:48.350Z,30
2022-11-05T06:26:16.604Z,53
2022-11-05T06:28:44.853Z,34
2022-11-05T06:32:27.260Z,44
2022-11-05T06:34:55.542Z,35
2022-11-05T06:38:37.940Z,41
2022-11-05T07:04:34.790Z,31
2022-11-05T07:08:25.318Z,43
2022-11-05T07:10:53.544Z,26
2022-11-05T07:13:21.821Z,29
2022-11-05T07:15:50.106Z,30
2022-11-05T07:18:18.381Z,26
2022-11-05T07:20:46.658Z,27
2022-11-05T07:50:34.093Z,29
2022-11-05T07:54:24.628Z,36
2022-11-05T07:56:52.912Z,20
2022-11-05T07:59:29.340Z,22
2022-11-05T08:01:57.808Z,30
2022-11-05T08:04:25.870Z,35
2022-11-05T08:09:14.209Z,40
2022-11-05T08:11:42.472Z,43
2022-11-05T08:15:25.034Z,57
2022-11-05T08:18:01.327Z,46
2022-11-05T08:20:29.618Z,29
2022-11-05T08:22:57.872Z,27
2022-11-05T08:25:26.133Z,47
2022-11-05T08:27:54.394Z,26
2022-11-05T08:30:22.689Z,39
2022-11-05T08:32:50.937Z,21
2022-11-05T08:35:19.223Z,25
2022-11-05T08:37:47.462Z,40
2022-11-05T08:41:29.886Z,49
2022-11-05T08:44:06.327Z,44
2022-11-05T08:47:56.928Z,57
2022-11-05T08:50:25.336Z,52
2022-11-05T08:52:53.422Z,40
2022-11-05T08:55:21.717Z,26
2022-11-05T08:57:50.020Z,23
2022-11-05T09:47:39.901Z,38
2022-11-05T09:51:24.043Z,22
2022-11-05T09:53:50.554Z,39
2022-11-05T09:57:32.955Z,46
2022-11-05T10:00:01.247Z,33
2022-11-05T10:41:04.029Z,19
2022-11-05T11:09:29.485Z,34
2022-11-05T11:11:57.374Z,19
2022-11-05T11:14:26.049Z,41
2022-11-05T11:16:53.861Z,24
2022-11-05T11:19:22.139Z,36
2022-11-05T11:21:50.490Z,31
2022-11-05T11:24:18.701Z,47
2022-11-05T11:26:47.198Z,26
2022-11-05T11:55:20.347Z,69
2022-11-05T11:57:56.687Z,23
2022-11-05T12:00:25.025Z,42
2022-11-05T12:02:45.115Z,35
2022-11-05T12:06:35.813Z,70
2022-11-05T12:10:26.188Z,39
2022-11-05T12:12:54.621Z,28
2022-11-05T12:16:45.618Z,34
2022-11-05T12:20:35.662Z,31
2022-11-05T12:24:18.031Z,34
2022-11-05T12:26:48.083Z,33
2022-11-05T12:30:28.720Z,35
2022-11-05T12:32:57.081Z,52
2022-11-05T12:36:39.364Z,29
2022-11-05T12:40:21.797Z,38
2022-11-05T12:56:42.070Z,49
2022-11-05T13:12:37.498Z,28
2022-11-05T13:16:28.266Z,77
2022-11-05T13:42:49.555Z,41
2022-11-05T14:13:50.998Z,59
2022-11-05T14:17:33.654Z,59
2022-11-05T14:20:01.593Z,51
2022-11-05T14:22:29.853Z,47
2022-11-05T14:24:58.337Z,36
2022-11-05T14:27:26.408Z,44
2022-11-05T14:29:54.666Z,34
2022-11-05T14:32:23.038Z,45
2022-11-05T14:37:19.673Z,41
2022-11-05T14:39:47.726Z,42
2022-11-05T14:43:38.774Z,87
2022-11-05T14:47:29.016Z,37
2022-11-05T14:51:19.531Z,56
2022-11-05T14:53:47.841Z,54
2022-11-05T14:57:30.188Z,53
2022-11-05T14:59:58.429Z,58
2022-11-05T15:02:26.845Z,61
2022-11-05T15:07:31.594Z,109
2022-11-05T15:38:41.175Z,63
2022-11-05T15:42:23.566Z,34
2022-11-05T15:47:28.392Z,48
2022-11-05T15:52:24.903Z,44
2022-11-05T15:57:21.637Z,43
2022-11-05T15:59:49.612Z,69
2022-11-05T16:02:17.994Z,61
2022-11-05T16:06:00.369Z,40
2022-11-05T16:33:19.503Z,39
2022-11-05T16:35:55.945Z,71
2022-11-05T16:38:24.131Z,56
2022-11-05T16:43:20.678Z,73
2022-11-05T16:45:48.928Z,44
2022-11-05T16:48:17.298Z,65
2022-11-05T16:50:37.268Z,49
2022-11-05T17:17:56.578Z,59
2022-11-05T17:20:38.513Z,50
2022-11-05T17:23:01.236Z,66
2022-11-05T17:25:29.390Z,61
2022-11-05T17:27:57.668Z,75
2022-11-05T17:30:26.027Z,66
2022-11-05T17:32:54.375Z,94
2022-11-05T17:35:22.653Z,73
2022-11-05T17:37:50.715Z,63
2022-11-05T17:40:19.062Z,79
2022-11-05T17:42:47.407Z,110
2022-11-05T17:46:30.332Z,80
2022-11-05T17:51:26.281Z,81
2022-11-05T18:12:34.676Z,51
2022-11-05T18:17:23.151Z,69
2022-11-05T18:19:51.252Z,67
2022-11-05T18:22:19.548Z,42
2022-11-05T18:24:47.803Z,64
2022-11-05T18:28:30.554Z,55
2022-11-05T18:30:58.469Z,51
2022-11-05T18:34:41.011Z,80
2022-11-05T19:00:54.242Z,155
2022-11-05T19:05:00.646Z,142
2022-11-05T19:08:27.032Z,171
2022-11-05T19:10:55.656Z,129
2022-11-05T19:14:29.505Z,127
2022-11-05T19:16:57.937Z,75
2022-11-05T19:44:25.994Z,125
2022-11-05T19:46:53.519Z,154
2022-11-05T19:49:21.641Z,111
2022-11-05T19:51:49.876Z,99
2022-11-05T19:54:18.395Z,71
2022-11-05T20:59:47.333Z,101
2022-11-05T21:03:38.007Z,154
2022-11-05T21:07:20.207Z,64
2022-11-05T21:09:48.496Z,104
2022-11-05T21:13:30.876Z,113
2022-11-05T21:15:59.812Z,76
2022-11-05T21:42:04.513Z,77
2022-11-05T21:44:40.582Z,69
2022-11-05T21:48:22.989Z,67
2022-11-05T21:50:51.280Z,79
2022-11-05T21:53:19.614Z,75
2022-11-05T21:55:47.829Z,75
2022-11-05T21:59:30.209Z,94
2022-11-05T22:04:18.626Z,75
2022-11-05T22:30:23.621Z,61
2022-11-05T22:33:00.387Z,70
2022-11-05T22:35:28.288Z,54
2022-11-05T22:37:56.574Z,72
2022-11-05T22:40:24.781Z,59
2022-11-05T22:42:53.279Z,63
2022-11-05T22:45:21.317Z,86
2022-11-05T22:47:50.060Z,73
2022-11-05T22:50:17.858Z,67
2022-11-05T22:52:46.293Z,59
2022-11-05T23:18:34.812Z,69
2022-11-05T23:22:26.076Z,57
2022-11-05T23:24:53.598Z,77
2022-11-05T23:27:21.868Z,70
2022-11-05T23:29:50.128Z,79
2022-11-05T23:32:18.466Z,43
2022-11-05T23:34:46.735Z,65
